Briefing drone pour Saint-peray

Rechercher une autre localisation

Conditions de vol :


Nous sommes le : Jeudi 04 mars 2021
Il est 12:33 UTC (13:33 LT)

Lever de soleil : 05:45 UTC (06:45 LT)
Coucher de soleil : 17:58 UTC (18:58 LT)

Météo

L'essentiel des conditions de vol

VIGILANCE MÉTÉO FRANCE - Ardèche (07)
Pas de vigilances particulieres
CARTES DES FRONTS
METAR de LFLU
LFLU 041200Z AUTO 20013KT 9999 FEW033 15/06 Q1021

Date d'émission: 04/03/2021
Heure d'émission: 12:00 UTC
Vent: 200° pour 13 KT (24 km/h)
Visibilité horizontale: > 10 km
Plafond :
- Peu de nuages à 3300ft (1006m)
Température: 15 °C
Point de rosée: 6 °C
Humidité: 55%
Pression (QNH): 1021 hPa
Prévision 24h pour Valence (3 km)
Vent : 13° pour 6 KT (20 km/h)
Temperature Maxi: 9 °C
Temperature Min: 9 °C
Humidité : 80%
Condition : Nuageux



Warning: count(): Parameter must be an array or an object that implements Countable in /homepages/6/d509196549/htdocs/droneoxygene/briefing.php on line 743
WEBCAM POUR SAINT-PERAY

Réglementation

Voler en sécurité

CARTES AERONAUTIQUE 1/500.000
CARTES VAC (LFLU)
SUP AIP




Chargement des AIP...
NOTAM (SAINT-PERAY + Terrain à proximité / FIR )




Chargement des NOTAMS...
CONTACT PREFECTURE 07


Avertissement : Les données mises à disposition sont indicatives. Oxygène Drone ne pourra être tenu responsable de dégâts causés aux biens et aux personnes.